sensor_id;sensor_type;location;lat;lon;timestamp;P1;durP1;ratioP1;P2;durP2;ratioP2
55053;SDS011;40954;45.668;18.980;2022-09-21T00:03:34;3.10;;;2.58;;
55053;SDS011;40954;45.668;18.980;2022-09-21T00:06:03;3.15;;;2.47;;
55053;SDS011;40954;45.668;18.980;2022-09-21T00:08:30;2.63;;;2.33;;
55053;SDS011;40954;45.668;18.980;2022-09-21T00:10:56;3.30;;;2.30;;
55053;SDS011;40954;45.668;18.980;2022-09-21T00:13:23;2.65;;;2.20;;
55053;SDS011;40954;45.668;18.980;2022-09-21T00:15:50;2.30;;;2.10;;
55053;SDS011;40954;45.668;18.980;2022-09-21T00:18:16;2.20;;;2.00;;
55053;SDS011;40954;45.668;18.980;2022-09-21T00:20:42;2.30;;;2.10;;
55053;SDS011;40954;45.668;18.980;2022-09-21T00:23:08;2.42;;;2.00;;
55053;SDS011;40954;45.668;18.980;2022-09-21T00:25:35;3.35;;;2.70;;
55053;SDS011;40954;45.668;18.980;2022-09-21T00:28:01;4.63;;;2.63;;
55053;SDS011;40954;45.668;18.980;2022-09-21T00:30:27;3.83;;;2.33;;
55053;SDS011;40954;45.668;18.980;2022-09-21T00:32:53;3.28;;;2.97;;
55053;SDS011;40954;45.668;18.980;2022-09-21T00:35:19;4.40;;;2.60;;
55053;SDS011;40954;45.668;18.980;2022-09-21T00:37:45;4.45;;;2.70;;
55053;SDS011;40954;45.668;18.980;2022-09-21T00:40:11;4.95;;;2.70;;
55053;SDS011;40954;45.668;18.980;2022-09-21T00:42:37;3.10;;;2.80;;
55053;SDS011;40954;45.668;18.980;2022-09-21T00:45:04;2.55;;;2.35;;
55053;SDS011;40954;45.668;18.980;2022-09-21T00:47:34;2.85;;;2.53;;
55053;SDS011;40954;45.668;18.980;2022-09-21T00:50:03;2.63;;;2.17;;
55053;SDS011;40954;45.668;18.980;2022-09-21T00:52:31;3.63;;;2.20;;
55053;SDS011;40954;45.668;18.980;2022-09-21T00:54:59;2.80;;;2.55;;
55053;SDS011;40954;45.668;18.980;2022-09-21T00:57:28;3.33;;;2.20;;
55053;SDS011;40954;45.668;18.980;2022-09-21T00:59:55;4.00;;;2.17;;
55053;SDS011;40954;45.668;18.980;2022-09-21T01:02:23;2.60;;;2.20;;
55053;SDS011;40954;45.668;18.980;2022-09-21T01:04:51;2.45;;;1.90;;
55053;SDS011;40954;45.668;18.980;2022-09-21T01:07:24;2.05;;;1.95;;
55053;SDS011;40954;45.668;18.980;2022-09-21T01:09:52;3.10;;;2.20;;
55053;SDS011;40954;45.668;18.980;2022-09-21T01:22:43;2.50;;;2.30;;
55053;SDS011;40954;45.668;18.980;2022-09-21T01:25:29;2.50;;;2.30;;
55053;SDS011;40954;45.668;18.980;2022-09-21T01:28:05;3.15;;;1.80;;
55053;SDS011;40954;45.668;18.980;2022-09-21T01:30:33;3.05;;;2.00;;
55053;SDS011;40954;45.668;18.980;2022-09-21T01:33:12;6.28;;;2.50;;
55053;SDS011;40954;45.668;18.980;2022-09-21T01:35:44;2.42;;;2.17;;
55053;SDS011;40954;45.668;18.980;2022-09-21T01:38:23;3.80;;;2.45;;
55053;SDS011;40954;45.668;18.980;2022-09-21T01:40:50;2.08;;;1.98;;
55053;SDS011;40954;45.668;18.980;2022-09-21T01:43:22;2.45;;;2.28;;
55053;SDS011;40954;45.668;18.980;2022-09-21T01:45:49;2.40;;;2.15;;
55053;SDS011;40954;45.668;18.980;2022-09-21T01:48:17;1.98;;;1.85;;
55053;SDS011;40954;45.668;18.980;2022-09-21T01:50:47;2.60;;;2.17;;
55053;SDS011;40954;45.668;18.980;2022-09-21T01:53:20;4.38;;;2.42;;
55053;SDS011;40954;45.668;18.980;2022-09-21T01:55:48;9.88;;;3.58;;
55053;SDS011;40954;45.668;18.980;2022-09-21T02:00:43;5.07;;;2.83;;
55053;SDS011;40954;45.668;18.980;2022-09-21T02:03:13;2.85;;;2.10;;
55053;SDS011;40954;45.668;18.980;2022-09-21T02:05:40;3.67;;;2.30;;
55053;SDS011;40954;45.668;18.980;2022-09-21T02:08:07;5.70;;;3.50;;
55053;SDS011;40954;45.668;18.980;2022-09-21T02:10:35;4.43;;;3.38;;
55053;SDS011;40954;45.668;18.980;2022-09-21T02:13:03;3.08;;;2.75;;
55053;SDS011;40954;45.668;18.980;2022-09-21T02:15:35;5.20;;;3.33;;
55053;SDS011;40954;45.668;18.980;2022-09-21T02:18:06;3.95;;;2.85;;
55053;SDS011;40954;45.668;18.980;2022-09-21T02:20:35;4.78;;;2.70;;
55053;SDS011;40954;45.668;18.980;2022-09-21T02:23:11;3.53;;;2.80;;
55053;SDS011;40954;45.668;18.980;2022-09-21T02:28:27;3.58;;;2.40;;
55053;SDS011;40954;45.668;18.980;2022-09-21T02:31:08;5.65;;;2.65;;
55053;SDS011;40954;45.668;18.980;2022-09-21T02:33:40;3.58;;;2.45;;
55053;SDS011;40954;45.668;18.980;2022-09-21T02:36:10;3.15;;;2.40;;
55053;SDS011;40954;45.668;18.980;2022-09-21T02:38:41;3.88;;;2.60;;
55053;SDS011;40954;45.668;18.980;2022-09-21T02:41:18;2.60;;;2.40;;
55053;SDS011;40954;45.668;18.980;2022-09-21T02:44:01;5.57;;;2.70;;
55053;SDS011;40954;45.668;18.980;2022-09-21T02:49:31;4.20;;;3.60;;
55053;SDS011;40954;45.668;18.980;2022-09-21T02:51:59;4.55;;;3.03;;
55053;SDS011;40954;45.668;18.980;2022-09-21T02:54:28;3.33;;;3.03;;
55053;SDS011;40954;45.668;18.980;2022-09-21T02:56:55;3.65;;;2.50;;
55053;SDS011;40954;45.668;18.980;2022-09-21T02:59:23;3.88;;;2.90;;
55053;SDS011;40954;45.668;18.980;2022-09-21T03:01:50;3.38;;;3.00;;
55053;SDS011;40954;45.668;18.980;2022-09-21T03:04:16;3.70;;;3.10;;
55053;SDS011;40954;45.668;18.980;2022-09-21T03:06:42;3.17;;;2.63;;
55053;SDS011;40954;45.668;18.980;2022-09-21T03:09:09;2.88;;;2.58;;
55053;SDS011;40954;45.668;18.980;2022-09-21T03:11:35;3.13;;;2.83;;
55053;SDS011;40954;45.668;18.980;2022-09-21T03:14:02;4.60;;;3.45;;
55053;SDS011;40954;45.668;18.980;2022-09-21T03:16:33;4.57;;;2.78;;
55053;SDS011;40954;45.668;18.980;2022-09-21T03:18:59;2.97;;;2.63;;
55053;SDS011;40954;45.668;18.980;2022-09-21T03:21:25;3.50;;;2.60;;
55053;SDS011;40954;45.668;18.980;2022-09-21T03:23:51;2.70;;;2.50;;
55053;SDS011;40954;45.668;18.980;2022-09-21T03:26:17;3.75;;;2.50;;
55053;SDS011;40954;45.668;18.980;2022-09-21T03:28:47;3.03;;;2.80;;
55053;SDS011;40954;45.668;18.980;2022-09-21T03:31:13;3.03;;;2.63;;
55053;SDS011;40954;45.668;18.980;2022-09-21T03:33:40;2.65;;;2.45;;
55053;SDS011;40954;45.668;18.980;2022-09-21T03:36:06;3.50;;;2.80;;
55053;SDS011;40954;45.668;18.980;2022-09-21T03:38:32;3.95;;;3.00;;
55053;SDS011;40954;45.668;18.980;2022-09-21T03:40:58;4.38;;;2.63;;
55053;SDS011;40954;45.668;18.980;2022-09-21T03:43:24;2.70;;;2.45;;
55053;SDS011;40954;45.668;18.980;2022-09-21T03:45:51;3.50;;;2.80;;
55053;SDS011;40954;45.668;18.980;2022-09-21T03:48:17;2.72;;;2.53;;
55053;SDS011;40954;45.668;18.980;2022-09-21T03:50:43;4.38;;;3.25;;
55053;SDS011;40954;45.668;18.980;2022-09-21T03:53:10;3.97;;;2.85;;
55053;SDS011;40954;45.668;18.980;2022-09-21T03:55:36;3.10;;;2.85;;
55053;SDS011;40954;45.668;18.980;2022-09-21T03:58:02;5.35;;;2.95;;
55053;SDS011;40954;45.668;18.980;2022-09-21T04:00:28;4.13;;;3.67;;
55053;SDS011;40954;45.668;18.980;2022-09-21T04:02:54;4.50;;;3.35;;
55053;SDS011;40954;45.668;18.980;2022-09-21T04:05:21;4.80;;;3.10;;
55053;SDS011;40954;45.668;18.980;2022-09-21T04:07:47;3.72;;;3.42;;
55053;SDS011;40954;45.668;18.980;2022-09-21T04:10:14;3.50;;;3.20;;
55053;SDS011;40954;45.668;18.980;2022-09-21T04:12:41;3.00;;;2.80;;
55053;SDS011;40954;45.668;18.980;2022-09-21T04:15:17;3.50;;;2.28;;
55053;SDS011;40954;45.668;18.980;2022-09-21T04:17:44;4.68;;;3.50;;
55053;SDS011;40954;45.668;18.980;2022-09-21T04:20:10;9.73;;;4.95;;
55053;SDS011;40954;45.668;18.980;2022-09-21T04:22:36;7.80;;;5.32;;
55053;SDS011;40954;45.668;18.980;2022-09-21T04:25:03;7.45;;;4.65;;
55053;SDS011;40954;45.668;18.980;2022-09-21T04:27:30;4.95;;;4.15;;
55053;SDS011;40954;45.668;18.980;2022-09-21T04:29:56;5.25;;;4.03;;
55053;SDS011;40954;45.668;18.980;2022-09-21T04:32:22;4.72;;;3.97;;
55053;SDS011;40954;45.668;18.980;2022-09-21T04:34:48;8.65;;;5.70;;
55053;SDS011;40954;45.668;18.980;2022-09-21T04:37:14;3.75;;;3.33;;
55053;SDS011;40954;45.668;18.980;2022-09-21T04:39:40;5.43;;;2.90;;
55053;SDS011;40954;45.668;18.980;2022-09-21T04:42:07;3.90;;;3.58;;
55053;SDS011;40954;45.668;18.980;2022-09-21T04:44:33;6.03;;;3.63;;
55053;SDS011;40954;45.668;18.980;2022-09-21T04:46:59;3.80;;;3.42;;
55053;SDS011;40954;45.668;18.980;2022-09-21T04:49:26;5.85;;;3.78;;
55053;SDS011;40954;45.668;18.980;2022-09-21T04:51:52;4.18;;;3.22;;
55053;SDS011;40954;45.668;18.980;2022-09-21T04:54:18;5.07;;;2.95;;
55053;SDS011;40954;45.668;18.980;2022-09-21T04:56:44;3.90;;;3.35;;
55053;SDS011;40954;45.668;18.980;2022-09-21T04:59:10;8.75;;;5.07;;
55053;SDS011;40954;45.668;18.980;2022-09-21T05:01:36;5.05;;;4.13;;
55053;SDS011;40954;45.668;18.980;2022-09-21T05:04:02;5.85;;;3.55;;
55053;SDS011;40954;45.668;18.980;2022-09-21T05:06:28;6.80;;;4.45;;
55053;SDS011;40954;45.668;18.980;2022-09-21T05:08:55;9.40;;;4.75;;
55053;SDS011;40954;45.668;18.980;2022-09-21T05:11:39;3.40;;;3.10;;
55053;SDS011;40954;45.668;18.980;2022-09-21T05:14:05;4.50;;;4.07;;
55053;SDS011;40954;45.668;18.980;2022-09-21T05:16:31;8.10;;;3.92;;
55053;SDS011;40954;45.668;18.980;2022-09-21T05:18:58;6.35;;;4.13;;
55053;SDS011;40954;45.668;18.980;2022-09-21T05:21:24;4.43;;;3.78;;
55053;SDS011;40954;45.668;18.980;2022-09-21T05:23:50;7.38;;;5.05;;
55053;SDS011;40954;45.668;18.980;2022-09-21T05:26:16;5.60;;;4.32;;
55053;SDS011;40954;45.668;18.980;2022-09-21T05:28:42;7.32;;;5.15;;
55053;SDS011;40954;45.668;18.980;2022-09-21T05:33:51;7.03;;;4.00;;
55053;SDS011;40954;45.668;18.980;2022-09-21T05:39:03;6.75;;;5.20;;
55053;SDS011;40954;45.668;18.980;2022-09-21T05:41:31;4.22;;;3.50;;
55053;SDS011;40954;45.668;18.980;2022-09-21T05:43:57;6.43;;;3.47;;
55053;SDS011;40954;45.668;18.980;2022-09-21T05:50:04;5.35;;;3.72;;
55053;SDS011;40954;45.668;18.980;2022-09-21T05:52:15;3.55;;;3.25;;
55053;SDS011;40954;45.668;18.980;2022-09-21T06:00:17;4.95;;;3.50;;
55053;SDS011;40954;45.668;18.980;2022-09-21T06:05:16;3.97;;;3.20;;
55053;SDS011;40954;45.668;18.980;2022-09-21T06:07:42;4.50;;;3.33;;
55053;SDS011;40954;45.668;18.980;2022-09-21T06:10:09;7.05;;;3.30;;
55053;SDS011;40954;45.668;18.980;2022-09-21T06:12:36;5.60;;;3.25;;
55053;SDS011;40954;45.668;18.980;2022-09-21T06:15:03;5.72;;;3.63;;
55053;SDS011;40954;45.668;18.980;2022-09-21T06:17:29;6.15;;;3.55;;
55053;SDS011;40954;45.668;18.980;2022-09-21T06:19:57;3.00;;;2.70;;
55053;SDS011;40954;45.668;18.980;2022-09-21T06:22:23;4.22;;;3.28;;
55053;SDS011;40954;45.668;18.980;2022-09-21T06:24:49;4.10;;;3.60;;
55053;SDS011;40954;45.668;18.980;2022-09-21T06:27:15;3.72;;;3.40;;
55053;SDS011;40954;45.668;18.980;2022-09-21T06:29:41;4.38;;;3.55;;
55053;SDS011;40954;45.668;18.980;2022-09-21T06:32:07;5.90;;;3.55;;
55053;SDS011;40954;45.668;18.980;2022-09-21T06:34:33;3.95;;;3.28;;
55053;SDS011;40954;45.668;18.980;2022-09-21T06:36:59;4.72;;;3.17;;
55053;SDS011;40954;45.668;18.980;2022-09-21T06:39:25;6.47;;;3.85;;
55053;SDS011;40954;45.668;18.980;2022-09-21T06:41:51;5.47;;;3.83;;
55053;SDS011;40954;45.668;18.980;2022-09-21T06:44:17;4.15;;;3.80;;
55053;SDS011;40954;45.668;18.980;2022-09-21T06:46:43;4.30;;;4.00;;
55053;SDS011;40954;45.668;18.980;2022-09-21T06:49:09;5.55;;;4.75;;
55053;SDS011;40954;45.668;18.980;2022-09-21T06:51:35;4.43;;;3.63;;
55053;SDS011;40954;45.668;18.980;2022-09-21T06:54:01;4.55;;;3.83;;
55053;SDS011;40954;45.668;18.980;2022-09-21T06:56:27;5.43;;;3.65;;
55053;SDS011;40954;45.668;18.980;2022-09-21T06:58:54;5.05;;;3.85;;
55053;SDS011;40954;45.668;18.980;2022-09-21T07:01:20;4.47;;;3.70;;
55053;SDS011;40954;45.668;18.980;2022-09-21T07:03:50;5.30;;;4.53;;
55053;SDS011;40954;45.668;18.980;2022-09-21T07:06:16;6.43;;;4.30;;
55053;SDS011;40954;45.668;18.980;2022-09-21T07:08:44;6.03;;;4.40;;
55053;SDS011;40954;45.668;18.980;2022-09-21T07:11:10;8.98;;;5.07;;
55053;SDS011;40954;45.668;18.980;2022-09-21T07:13:37;5.57;;;4.45;;
55053;SDS011;40954;45.668;18.980;2022-09-21T07:16:03;7.38;;;4.55;;
55053;SDS011;40954;45.668;18.980;2022-09-21T07:18:31;6.43;;;4.68;;
55053;SDS011;40954;45.668;18.980;2022-09-21T07:21:01;4.82;;;4.40;;
55053;SDS011;40954;45.668;18.980;2022-09-21T07:23:27;6.57;;;4.65;;
55053;SDS011;40954;45.668;18.980;2022-09-21T07:25:53;5.57;;;4.50;;
55053;SDS011;40954;45.668;18.980;2022-09-21T07:28:20;6.45;;;4.78;;
55053;SDS011;40954;45.668;18.980;2022-09-21T07:30:46;5.07;;;4.55;;
55053;SDS011;40954;45.668;18.980;2022-09-21T07:33:12;6.30;;;5.15;;
55053;SDS011;40954;45.668;18.980;2022-09-21T07:35:38;6.60;;;5.00;;
55053;SDS011;40954;45.668;18.980;2022-09-21T07:38:05;5.50;;;5.00;;
55053;SDS011;40954;45.668;18.980;2022-09-21T07:40:32;5.88;;;5.18;;
55053;SDS011;40954;45.668;18.980;2022-09-21T07:42:59;7.75;;;5.35;;
55053;SDS011;40954;45.668;18.980;2022-09-21T07:45:28;5.68;;;5.13;;
55053;SDS011;40954;45.668;18.980;2022-09-21T07:47:54;6.78;;;5.45;;
55053;SDS011;40954;45.668;18.980;2022-09-21T07:50:21;6.18;;;5.57;;
55053;SDS011;40954;45.668;18.980;2022-09-21T07:52:47;5.95;;;5.35;;
55053;SDS011;40954;45.668;18.980;2022-09-21T07:55:13;8.30;;;5.30;;
55053;SDS011;40954;45.668;18.980;2022-09-21T07:57:39;5.85;;;5.13;;
55053;SDS011;40954;45.668;18.980;2022-09-21T08:00:24;7.68;;;6.18;;
55053;SDS011;40954;45.668;18.980;2022-09-21T08:02:53;15.02;;;10.88;;
55053;SDS011;40954;45.668;18.980;2022-09-21T08:05:19;6.05;;;5.38;;
55053;SDS011;40954;45.668;18.980;2022-09-21T08:07:45;5.32;;;4.82;;
55053;SDS011;40954;45.668;18.980;2022-09-21T08:10:12;5.38;;;4.88;;
55053;SDS011;40954;45.668;18.980;2022-09-21T08:12:38;7.68;;;4.72;;
55053;SDS011;40954;45.668;18.980;2022-09-21T08:15:04;5.28;;;4.85;;
55053;SDS011;40954;45.668;18.980;2022-09-21T08:17:31;5.70;;;4.63;;
55053;SDS011;40954;45.668;18.980;2022-09-21T08:19:57;4.60;;;4.20;;
55053;SDS011;40954;45.668;18.980;2022-09-21T08:22:24;4.78;;;4.35;;
55053;SDS011;40954;45.668;18.980;2022-09-21T08:24:50;5.03;;;4.53;;
55053;SDS011;40954;45.668;18.980;2022-09-21T08:27:16;4.93;;;4.43;;
55053;SDS011;40954;45.668;18.980;2022-09-21T08:29:44;4.80;;;4.40;;
55053;SDS011;40954;45.668;18.980;2022-09-21T08:32:10;5.30;;;4.10;;
55053;SDS011;40954;45.668;18.980;2022-09-21T08:34:36;6.38;;;5.13;;
55053;SDS011;40954;45.668;18.980;2022-09-21T08:37:02;5.30;;;4.80;;
55053;SDS011;40954;45.668;18.980;2022-09-21T08:39:29;4.97;;;4.47;;
55053;SDS011;40954;45.668;18.980;2022-09-21T08:47:15;4.30;;;3.95;;
55053;SDS011;40954;45.668;18.980;2022-09-21T08:49:44;8.38;;;5.00;;
55053;SDS011;40954;45.668;18.980;2022-09-21T08:52:12;4.68;;;4.07;;
55053;SDS011;40954;45.668;18.980;2022-09-21T08:54:45;4.50;;;4.10;;
55053;SDS011;40954;45.668;18.980;2022-09-21T08:57:12;4.13;;;3.60;;
55053;SDS011;40954;45.668;18.980;2022-09-21T08:59:43;3.92;;;3.53;;
55053;SDS011;40954;45.668;18.980;2022-09-21T09:05:20;3.75;;;3.40;;
55053;SDS011;40954;45.668;18.980;2022-09-21T09:10:26;3.55;;;3.25;;
55053;SDS011;40954;45.668;18.980;2022-09-21T09:17:58;3.90;;;2.67;;
55053;SDS011;40954;45.668;18.980;2022-09-21T09:20:28;2.65;;;2.45;;
55053;SDS011;40954;45.668;18.980;2022-09-21T09:25:26;2.30;;;2.20;;
55053;SDS011;40954;45.668;18.980;2022-09-21T09:27:57;3.90;;;3.58;;
55053;SDS011;40954;45.668;18.980;2022-09-21T09:30:24;2.67;;;2.50;;
55053;SDS011;40954;45.668;18.980;2022-09-21T09:37:49;2.30;;;2.10;;
55053;SDS011;40954;45.668;18.980;2022-09-21T09:40:15;2.63;;;2.42;;
55053;SDS011;40954;45.668;18.980;2022-09-21T09:42:52;2.50;;;2.25;;
55053;SDS011;40954;45.668;18.980;2022-09-21T09:45:23;3.25;;;2.95;;
55053;SDS011;40954;45.668;18.980;2022-09-21T09:50:40;2.80;;;2.60;;
55053;SDS011;40954;45.668;18.980;2022-09-21T09:58:02;1.98;;;1.88;;
55053;SDS011;40954;45.668;18.980;2022-09-21T10:00:28;1.95;;;1.85;;
55053;SDS011;40954;45.668;18.980;2022-09-21T10:02:55;3.40;;;3.10;;
55053;SDS011;40954;45.668;18.980;2022-09-21T10:07:53;2.80;;;2.60;;
55053;SDS011;40954;45.668;18.980;2022-09-21T10:15:43;1.80;;;1.70;;
55053;SDS011;40954;45.668;18.980;2022-09-21T10:20:52;2.17;;;2.03;;
55053;SDS011;40954;45.668;18.980;2022-09-21T10:23:19;3.17;;;2.00;;
55053;SDS011;40954;45.668;18.980;2022-09-21T10:25:51;1.58;;;1.48;;
55053;SDS011;40954;45.668;18.980;2022-09-21T10:28:17;1.60;;;1.50;;
55053;SDS011;40954;45.668;18.980;2022-09-21T10:30:44;4.05;;;2.10;;
55053;SDS011;40954;45.668;18.980;2022-09-21T10:33:19;1.70;;;1.60;;
55053;SDS011;40954;45.668;18.980;2022-09-21T10:35:49;2.22;;;1.92;;
55053;SDS011;40954;45.668;18.980;2022-09-21T10:38:16;4.95;;;1.73;;
55053;SDS011;40954;45.668;18.980;2022-09-21T10:40:43;2.10;;;1.90;;
55053;SDS011;40954;45.668;18.980;2022-09-21T10:43:23;1.73;;;1.63;;
55053;SDS011;40954;45.668;18.980;2022-09-21T10:45:53;3.70;;;1.98;;
55053;SDS011;40954;45.668;18.980;2022-09-21T10:48:20;2.80;;;1.90;;
55053;SDS011;40954;45.668;18.980;2022-09-21T10:50:48;2.50;;;2.00;;
55053;SDS011;40954;45.668;18.980;2022-09-21T10:53:28;2.63;;;1.67;;
55053;SDS011;40954;45.668;18.980;2022-09-21T10:56:02;1.90;;;1.48;;
55053;SDS011;40954;45.668;18.980;2022-09-21T10:58:29;3.13;;;1.73;;
55053;SDS011;40954;45.668;18.980;2022-09-21T11:00:56;1.83;;;1.73;;
55053;SDS011;40954;45.668;18.980;2022-09-21T11:06:06;1.98;;;1.88;;
55053;SDS011;40954;45.668;18.980;2022-09-21T11:13:41;2.35;;;1.88;;
55053;SDS011;40954;45.668;18.980;2022-09-21T11:21:05;1.90;;;1.80;;
55053;SDS011;40954;45.668;18.980;2022-09-21T11:24:19;3.65;;;2.40;;
55053;SDS011;40954;45.668;18.980;2022-09-21T11:26:27;2.83;;;2.50;;
55053;SDS011;40954;45.668;18.980;2022-09-21T11:29:01;2.67;;;2.47;;
55053;SDS011;40954;45.668;18.980;2022-09-21T11:41:54;2.77;;;2.13;;
55053;SDS011;40954;45.668;18.980;2022-09-21T11:52:18;2.83;;;1.58;;
55053;SDS011;40954;45.668;18.980;2022-09-21T11:57:20;1.37;;;1.27;;
55053;SDS011;40954;45.668;18.980;2022-09-21T12:02:35;1.98;;;1.83;;
55053;SDS011;40954;45.668;18.980;2022-09-21T12:15:12;2.03;;;1.92;;
55053;SDS011;40954;45.668;18.980;2022-09-21T12:20:19;1.60;;;1.42;;
55053;SDS011;40954;45.668;18.980;2022-09-21T12:22:50;1.88;;;1.45;;
55053;SDS011;40954;45.668;18.980;2022-09-21T12:25:19;0.90;;;0.90;;
55053;SDS011;40954;45.668;18.980;2022-09-21T12:27:48;20.83;;;4.15;;
55053;SDS011;40954;45.668;18.980;2022-09-21T12:30:16;10.55;;;3.63;;
55053;SDS011;40954;45.668;18.980;2022-09-21T12:32:45;4.90;;;2.15;;
55053;SDS011;40954;45.668;18.980;2022-09-21T12:35:19;13.93;;;2.72;;
55053;SDS011;40954;45.668;18.980;2022-09-21T12:37:50;3.22;;;1.75;;
55053;SDS011;40954;45.668;18.980;2022-09-21T12:40:32;4.60;;;3.05;;
55053;SDS011;40954;45.668;18.980;2022-09-21T12:45:54;2.20;;;2.00;;
55053;SDS011;40954;45.668;18.980;2022-09-21T12:50:55;1.30;;;1.30;;
55053;SDS011;40954;45.668;18.980;2022-09-21T12:53:26;1.40;;;1.30;;
55053;SDS011;40954;45.668;18.980;2022-09-21T13:03:59;1.40;;;1.30;;
55053;SDS011;40954;45.668;18.980;2022-09-21T13:08:53;1.83;;;1.73;;
55053;SDS011;40954;45.668;18.980;2022-09-21T13:11:20;1.73;;;1.30;;
55053;SDS011;40954;45.668;18.980;2022-09-21T13:13:47;1.67;;;1.58;;
55053;SDS011;40954;45.668;18.980;2022-09-21T13:18:43;1.80;;;1.67;;
55053;SDS011;40954;45.668;18.980;2022-09-21T13:21:19;2.03;;;1.63;;
55053;SDS011;40954;45.668;18.980;2022-09-21T13:24:02;2.60;;;2.40;;
55053;SDS011;40954;45.668;18.980;2022-09-21T13:26:33;4.25;;;1.60;;
55053;SDS011;40954;45.668;18.980;2022-09-21T13:29:03;2.45;;;1.58;;
55053;SDS011;40954;45.668;18.980;2022-09-21T13:36:36;1.73;;;1.63;;
55053;SDS011;40954;45.668;18.980;2022-09-21T13:39:10;1.92;;;1.83;;
55053;SDS011;40954;45.668;18.980;2022-09-21T13:41:37;2.20;;;2.10;;
55053;SDS011;40954;45.668;18.980;2022-09-21T13:44:04;2.90;;;2.60;;
55053;SDS011;40954;45.668;18.980;2022-09-21T13:54:16;2.38;;;2.17;;
55053;SDS011;40954;45.668;18.980;2022-09-21T13:56:44;2.25;;;2.13;;
55053;SDS011;40954;45.668;18.980;2022-09-21T13:59:20;2.10;;;1.92;;
55053;SDS011;40954;45.668;18.980;2022-09-21T14:01:48;1.67;;;1.58;;
55053;SDS011;40954;45.668;18.980;2022-09-21T14:04:17;1.85;;;1.70;;
55053;SDS011;40954;45.668;18.980;2022-09-21T14:06:46;2.20;;;2.00;;
55053;SDS011;40954;45.668;18.980;2022-09-21T14:09:21;2.50;;;2.30;;
55053;SDS011;40954;45.668;18.980;2022-09-21T14:11:52;2.20;;;2.00;;
55053;SDS011;40954;45.668;18.980;2022-09-21T14:14:29;2.35;;;2.00;;
55053;SDS011;40954;45.668;18.980;2022-09-21T14:17:00;2.47;;;2.28;;
55053;SDS011;40954;45.668;18.980;2022-09-21T14:30:01;2.65;;;2.42;;
55053;SDS011;40954;45.668;18.980;2022-09-21T14:32:28;3.70;;;3.22;;
55053;SDS011;40954;45.668;18.980;2022-09-21T14:34:57;3.35;;;2.95;;
55053;SDS011;40954;45.668;18.980;2022-09-21T14:37:32;5.05;;;3.35;;
55053;SDS011;40954;45.668;18.980;2022-09-21T14:40:00;6.93;;;3.30;;
55053;SDS011;40954;45.668;18.980;2022-09-21T14:42:29;3.67;;;2.70;;
55053;SDS011;40954;45.668;18.980;2022-09-21T14:45:00;3.25;;;2.25;;
55053;SDS011;40954;45.668;18.980;2022-09-21T14:55:23;3.67;;;3.22;;
55053;SDS011;40954;45.668;18.980;2022-09-21T15:00:42;3.25;;;2.90;;
55053;SDS011;40954;45.668;18.980;2022-09-21T15:05:42;2.55;;;2.35;;
55053;SDS011;40954;45.668;18.980;2022-09-21T15:11:30;3.90;;;3.58;;
55053;SDS011;40954;45.668;18.980;2022-09-21T15:18:59;3.08;;;2.85;;
55053;SDS011;40954;45.668;18.980;2022-09-21T15:21:29;3.33;;;2.95;;
55053;SDS011;40954;45.668;18.980;2022-09-21T15:23:56;5.95;;;3.85;;
55053;SDS011;40954;45.668;18.980;2022-09-21T15:26:26;8.07;;;5.60;;
55053;SDS011;40954;45.668;18.980;2022-09-21T15:28:57;7.60;;;6.40;;
55053;SDS011;40954;45.668;18.980;2022-09-21T15:31:24;10.63;;;9.63;;
55053;SDS011;40954;45.668;18.980;2022-09-21T15:33:55;4.43;;;4.03;;
55053;SDS011;40954;45.668;18.980;2022-09-21T15:36:25;12.10;;;10.13;;
55053;SDS011;40954;45.668;18.980;2022-09-21T15:38:52;16.67;;;12.75;;
55053;SDS011;40954;45.668;18.980;2022-09-21T15:41:42;9.93;;;8.87;;
55053;SDS011;40954;45.668;18.980;2022-09-21T15:46:39;8.15;;;6.75;;
55053;SDS011;40954;45.668;18.980;2022-09-21T15:49:11;5.47;;;4.97;;
55053;SDS011;40954;45.668;18.980;2022-09-21T15:51:38;5.93;;;4.80;;
55053;SDS011;40954;45.668;18.980;2022-09-21T15:54:13;6.97;;;4.60;;
55053;SDS011;40954;45.668;18.980;2022-09-21T15:56:45;13.93;;;7.40;;
55053;SDS011;40954;45.668;18.980;2022-09-21T15:59:12;6.45;;;5.75;;
55053;SDS011;40954;45.668;18.980;2022-09-21T16:01:41;5.70;;;4.50;;
55053;SDS011;40954;45.668;18.980;2022-09-21T16:04:13;4.80;;;4.30;;
55053;SDS011;40954;45.668;18.980;2022-09-21T16:06:40;5.00;;;4.38;;
55053;SDS011;40954;45.668;18.980;2022-09-21T16:11:50;12.82;;;7.25;;
55053;SDS011;40954;45.668;18.980;2022-09-21T16:14:17;10.18;;;8.23;;
55053;SDS011;40954;45.668;18.980;2022-09-21T16:24:53;11.13;;;9.32;;
55053;SDS011;40954;45.668;18.980;2022-09-21T16:27:30;12.00;;;10.55;;
55053;SDS011;40954;45.668;18.980;2022-09-21T16:29:57;12.35;;;9.93;;
55053;SDS011;40954;45.668;18.980;2022-09-21T16:32:29;16.85;;;11.13;;
55053;SDS011;40954;45.668;18.980;2022-09-21T16:35:30;13.57;;;9.90;;
55053;SDS011;40954;45.668;18.980;2022-09-21T16:37:59;11.05;;;6.80;;
55053;SDS011;40954;45.668;18.980;2022-09-21T16:40:25;9.60;;;6.22;;
55053;SDS011;40954;45.668;18.980;2022-09-21T16:42:52;5.65;;;5.15;;
55053;SDS011;40954;45.668;18.980;2022-09-21T16:45:28;8.23;;;5.90;;
55053;SDS011;40954;45.668;18.980;2022-09-21T16:47:55;10.32;;;7.07;;
55053;SDS011;40954;45.668;18.980;2022-09-21T16:50:21;7.88;;;7.03;;
55053;SDS011;40954;45.668;18.980;2022-09-21T16:52:48;13.98;;;8.63;;
55053;SDS011;40954;45.668;18.980;2022-09-21T16:55:19;19.50;;;16.50;;
55053;SDS011;40954;45.668;18.980;2022-09-21T16:57:45;13.57;;;11.98;;
55053;SDS011;40954;45.668;18.980;2022-09-21T17:00:13;11.95;;;8.27;;
55053;SDS011;40954;45.668;18.980;2022-09-21T17:02:44;8.47;;;5.53;;
55053;SDS011;40954;45.668;18.980;2022-09-21T17:05:10;6.25;;;4.38;;
55053;SDS011;40954;45.668;18.980;2022-09-21T17:07:51;6.15;;;3.75;;
55053;SDS011;40954;45.668;18.980;2022-09-21T17:10:18;7.07;;;4.15;;
55053;SDS011;40954;45.668;18.980;2022-09-21T17:12:44;5.15;;;3.95;;
55053;SDS011;40954;45.668;18.980;2022-09-21T17:15:11;3.88;;;3.58;;
55053;SDS011;40954;45.668;18.980;2022-09-21T17:17:37;9.07;;;6.47;;
55053;SDS011;40954;45.668;18.980;2022-09-21T17:23:05;6.05;;;5.28;;
55053;SDS011;40954;45.668;18.980;2022-09-21T17:25:32;5.07;;;3.83;;
55053;SDS011;40954;45.668;18.980;2022-09-21T17:27:59;4.25;;;3.38;;
55053;SDS011;40954;45.668;18.980;2022-09-21T17:30:25;3.72;;;3.40;;
55053;SDS011;40954;45.668;18.980;2022-09-21T17:32:52;5.00;;;4.35;;
55053;SDS011;40954;45.668;18.980;2022-09-21T17:35:29;4.68;;;4.28;;
55053;SDS011;40954;45.668;18.980;2022-09-21T17:37:56;4.45;;;4.05;;
55053;SDS011;40954;45.668;18.980;2022-09-21T17:40:23;4.40;;;4.00;;
55053;SDS011;40954;45.668;18.980;2022-09-21T17:42:49;4.88;;;4.35;;
55053;SDS011;40954;45.668;18.980;2022-09-21T17:47:42;7.80;;;6.78;;
55053;SDS011;40954;45.668;18.980;2022-09-21T17:52:38;7.22;;;4.25;;
55053;SDS011;40954;45.668;18.980;2022-09-21T17:55:23;7.38;;;5.18;;
55053;SDS011;40954;45.668;18.980;2022-09-21T18:00:23;5.28;;;3.78;;
55053;SDS011;40954;45.668;18.980;2022-09-21T18:02:51;5.90;;;4.72;;
55053;SDS011;40954;45.668;18.980;2022-09-21T18:05:23;7.80;;;5.75;;
55053;SDS011;40954;45.668;18.980;2022-09-21T18:07:50;8.40;;;4.90;;
55053;SDS011;40954;45.668;18.980;2022-09-21T18:10:17;10.75;;;5.82;;
55053;SDS011;40954;45.668;18.980;2022-09-21T18:25:13;15.40;;;10.60;;
55053;SDS011;40954;45.668;18.980;2022-09-21T18:27:40;14.82;;;10.73;;
55053;SDS011;40954;45.668;18.980;2022-09-21T18:30:07;13.00;;;10.40;;